Time;durP1;ratioP1;P1;durP2;ratioP2;P2;SDS_P1;SDS_P2;PMS_P1;PMS_P2;Temp;Humidity;BMP_temperature;BMP_pressure;BME280_temperature;BME280_humidity;BME280_pressure;Samples;Min_cycle;Max_cycle;Signal;HPM_P1;HPM_P2
2021/11/14 00:01:27;;;;;;;16.57;10.43;;;6.70;99.90;6.50;100764.00;;;;4941002;28;94757;-66
2021/11/14 00:03:52;;;;;;;13.43;9.20;;;7.10;99.90;6.50;100762.00;;;;4932843;28;94069;-66
2021/11/14 00:06:20;;;;;;;18.83;9.10;;;6.60;99.90;6.50;100768.00;;;;4933452;28;113036;-66
2021/11/14 00:08:48;;;;;;;18.33;10.33;;;6.70;99.90;6.50;100776.00;;;;4934490;28;92869;-66
2021/11/14 00:11:18;;;;;;;20.23;10.67;;;6.60;99.90;6.50;100772.00;;;;4933351;28;93694;-65
2021/11/14 00:13:46;;;;;;;14.80;8.37;;;6.60;99.90;6.50;100776.00;;;;4932620;28;93981;-66
2021/11/14 00:16:14;;;;;;;17.03;9.03;;;6.60;99.90;6.40;100786.00;;;;4934135;28;92825;-67
2021/11/14 00:18:41;;;;;;;16.47;10.17;;;6.60;99.90;6.40;100774.00;;;;4933713;28;101404;-66
2021/11/14 00:21:11;;;;;;;19.80;11.23;;;6.60;99.90;6.50;100786.00;;;;4932720;28;93000;-66
2021/11/14 00:23:37;;;;;;;16.63;9.93;;;6.60;99.90;6.40;100792.00;;;;4932405;28;112420;-66
2021/11/14 00:26:03;;;;;;;17.87;9.87;;;6.60;99.90;6.40;100796.00;;;;4932700;28;97807;-66
2021/11/14 00:28:29;;;;;;;17.77;9.40;;;6.60;99.90;6.40;100785.00;;;;4932706;28;109597;-66
2021/11/14 00:30:55;;;;;;;20.17;10.60;;;6.60;99.90;6.40;100783.00;;;;4932643;28;123680;-66
2021/11/14 00:33:21;;;;;;;16.70;9.87;;;6.80;99.90;6.40;100792.00;;;;4946891;28;105228;-66
2021/11/14 00:35:51;;;;;;;15.37;9.37;;;6.60;99.90;6.40;100789.00;;;;4934030;28;92803;-66
2021/11/14 00:38:20;;;;;;;14.73;10.23;;;6.60;99.90;6.50;100796.00;;;;4932016;28;93717;-66
2021/11/14 00:40:47;;;;;;;18.20;11.67;;;6.70;99.90;6.50;100791.00;;;;4932548;28;105446;-66
2021/11/14 00:43:13;;;;;;;16.13;10.67;;;6.80;99.90;6.50;100795.00;;;;4933020;28;93721;-66
2021/11/14 00:45:40;;;;;;;17.37;9.77;;;6.90;99.90;6.50;100792.00;;;;4932778;28;92666;-66
2021/11/14 00:48:07;;;;;;;17.57;10.00;;;6.60;99.90;6.50;100799.00;;;;4933099;28;92918;-66
2021/11/14 00:50:37;;;;;;;16.83;10.03;;;6.70;99.90;6.60;100798.00;;;;4932297;28;93936;-66
2021/11/14 00:53:03;;;;;;;16.30;9.73;;;6.60;99.90;6.50;100802.00;;;;4932610;28;93250;-66
2021/11/14 00:55:31;;;;;;;18.10;10.90;;;6.70;99.90;6.60;100798.00;;;;4933530;28;112631;-67
2021/11/14 00:57:58;;;;;;;16.50;10.03;;;6.70;99.90;6.60;100809.00;;;;4932905;28;92987;-66
2021/11/14 01:00:26;;;;;;;15.20;8.83;;;6.70;99.90;6.60;100816.00;;;;4931832;28;108551;-66
2021/11/14 01:02:53;;;;;;;17.33;9.37;;;7.20;99.90;6.60;100807.00;;;;4933229;28;94006;-66
2021/11/14 01:05:20;;;;;;;18.87;11.30;;;6.90;99.90;6.60;100816.00;;;;4936590;28;94111;-66
2021/11/14 01:07:47;;;;;;;19.97;11.33;;;6.80;99.90;6.60;100819.00;;;;4935547;28;96099;-66
2021/11/14 01:10:19;;;;;;;16.03;10.40;;;6.70;99.90;6.60;100812.00;;;;4935423;28;102302;-66
2021/11/14 01:12:45;;;;;;;20.83;10.37;;;6.70;99.90;6.60;100812.00;;;;4935753;28;93029;-65
2021/11/14 01:15:12;;;;;;;15.23;9.60;;;6.80;99.90;6.60;100815.00;;;;4935696;28;113682;-66
2021/11/14 01:17:41;;;;;;;11.00;8.40;;;6.70;99.90;6.60;100815.00;;;;4937021;28;93168;-65
2021/11/14 01:20:11;;;;;;;13.93;10.10;;;6.70;99.90;6.60;100814.00;;;;4936339;28;93421;-66
2021/11/14 01:22:37;;;;;;;16.00;9.67;;;6.70;99.90;6.60;100803.00;;;;4935506;28;96927;-65
2021/11/14 01:25:05;;;;;;;18.03;10.93;;;6.70;99.90;6.70;100816.00;;;;4936786;28;93399;-67
2021/11/14 01:27:31;;;;;;;20.43;11.37;;;6.80;99.90;6.60;100819.00;;;;4935150;28;93960;-66
2021/11/14 01:29:56;;;;;;;14.47;9.83;;;7.10;99.90;6.60;100813.00;;;;4935223;28;94366;-67
2021/11/14 01:32:22;;;;;;;13.03;8.77;;;6.80;99.90;6.60;100817.00;;;;4934973;28;121626;-66
2021/11/14 01:34:48;;;;;;;19.83;9.37;;;6.80;99.90;6.60;100824.00;;;;4936200;28;109919;-66
2021/11/14 01:37:13;;;;;;;15.53;10.10;;;6.70;99.90;6.60;100825.00;;;;4936180;28;92922;-66
2021/11/14 01:39:39;;;;;;;14.70;9.97;;;6.80;99.90;6.60;100825.00;;;;4934782;28;122022;-65
2021/11/14 01:42:05;;;;;;;21.60;10.03;;;6.70;99.90;6.60;100827.00;;;;4935372;28;122254;-65
2021/11/14 01:44:30;;;;;;;17.60;10.60;;;6.80;99.90;6.60;100834.00;;;;4935348;28;101158;-66
2021/11/14 01:46:56;;;;;;;16.73;9.90;;;6.70;99.90;6.60;100820.00;;;;4934606;28;108491;-65
2021/11/14 01:49:22;;;;;;;14.43;8.63;;;6.70;99.90;6.60;100823.00;;;;4935128;28;122812;-66
2021/11/14 01:51:48;;;;;;;12.23;8.40;;;6.70;99.90;6.50;100819.00;;;;4934879;28;113531;-65
2021/11/14 01:54:19;;;;;;;14.53;9.27;;;6.70;99.90;6.50;100830.00;;;;4935680;28;110770;-66
2021/11/14 01:56:46;;;;;;;19.77;10.33;;;6.70;99.90;6.50;100835.00;;;;4935699;28;92798;-65
2021/11/14 01:59:13;;;;;;;16.97;8.80;;;6.60;99.90;6.40;100843.00;;;;4935909;28;93962;-67
2021/11/14 02:01:39;;;;;;;13.27;8.97;;;6.60;99.90;6.40;100830.00;;;;4935757;28;109317;-66
2021/11/14 02:04:06;;;;;;;17.23;10.63;;;6.50;99.90;6.30;100837.00;;;;4935258;28;110237;-67
2021/11/14 02:06:34;;;;;;;17.70;9.83;;;6.50;99.90;6.30;100834.00;;;;4935971;28;92973;-66
2021/11/14 02:09:02;;;;;;;18.77;9.50;;;6.40;99.90;6.20;100831.00;;;;4936034;28;107137;-66
2021/11/14 02:11:28;;;;;;;15.87;9.90;;;6.70;99.90;6.20;100844.00;;;;4936129;28;93028;-66
2021/11/14 02:13:54;;;;;;;20.37;10.67;;;6.70;99.90;6.10;100847.00;;;;4934506;28;98166;-66
2021/11/14 02:16:25;;;;;;;18.43;10.20;;;6.30;99.90;6.00;100854.00;;;;4934255;28;99018;-66
2021/11/14 02:18:51;;;;;;;19.77;10.27;;;6.20;99.90;5.90;100853.00;;;;4935056;28;93123;-66
2021/11/14 02:21:19;;;;;;;18.10;9.93;;;6.20;99.90;5.90;100843.00;;;;4934698;28;115961;-66
2021/11/14 02:23:45;;;;;;;16.43;9.50;;;6.10;99.90;5.80;100854.00;;;;4935603;28;92825;-67
2021/11/14 02:26:11;;;;;;;14.60;8.63;;;6.00;99.90;5.80;100850.00;;;;4936070;28;98547;-66
2021/11/14 02:28:37;;;;;;;16.33;10.43;;;6.30;99.90;5.70;100857.00;;;;4949748;28;93115;-66
2021/11/14 02:31:04;;;;;;;20.00;11.13;;;5.90;99.90;5.70;100863.00;;;;4934113;28;106340;-66
2021/11/14 02:33:30;;;;;;;19.30;11.03;;;6.40;99.90;5.70;100854.00;;;;4934876;28;99093;-66
2021/11/14 02:36:05;;;;;;;17.67;9.67;;;6.50;99.90;5.70;100856.00;;;;4935013;28;92805;-66
2021/11/14 02:38:32;;;;;;;16.40;10.10;;;6.10;99.90;5.70;100859.00;;;;4934225;28;111284;-65
2021/11/14 02:40:59;;;;;;;15.43;9.90;;;5.90;99.90;5.70;100852.00;;;;4933515;28;114043;-65
2021/11/14 02:43:25;;;;;;;11.27;8.67;;;5.90;99.90;5.70;100858.00;;;;4935929;28;92612;-66
2021/11/14 02:45:51;;;;;;;13.60;9.00;;;6.50;99.90;5.70;100872.00;;;;4936184;28;93136;-67
2021/11/14 02:48:17;;;;;;;12.07;9.80;;;6.30;99.90;5.70;100857.00;;;;4934754;28;93093;-66
2021/11/14 02:50:46;;;;;;;20.53;9.67;;;6.40;99.90;5.70;100870.00;;;;4934813;28;92960;-65
2021/11/14 02:53:13;;;;;;;16.70;9.17;;;6.40;99.90;5.80;100866.00;;;;4935224;28;92889;-65
2021/11/14 02:55:41;;;;;;;17.63;10.27;;;5.90;99.90;5.70;100856.00;;;;4935021;28;92730;-66
2021/11/14 02:58:08;;;;;;;18.23;10.60;;;5.90;99.90;5.80;100857.00;;;;4933682;28;110041;-66
2021/11/14 03:01:13;;;;;;;19.27;9.93;;;6.00;99.90;5.80;100854.00;;;;4933883;28;105654;-66
2021/11/14 03:03:40;;;;;;;17.57;9.33;;;5.90;99.90;5.80;100866.00;;;;4930295;28;93133;-66
2021/11/14 03:06:09;;;;;;;14.70;8.93;;;6.00;99.90;5.80;100859.00;;;;4934916;28;93693;-66
2021/11/14 03:08:35;;;;;;;17.37;10.87;;;5.30;99.90;5.80;100863.00;;;;4934421;28;94165;-67
2021/11/14 03:11:03;;;;;;;18.93;10.17;;;6.00;99.90;5.80;100871.00;;;;4934513;28;92850;-66
2021/11/14 03:13:29;;;;;;;15.17;9.43;;;6.00;99.90;5.80;100869.00;;;;4933813;28;92940;-66
2021/11/14 03:16:02;;;;;;;19.20;11.53;;;6.00;99.90;5.90;100873.00;;;;4934759;28;107583;-67
2021/11/14 03:18:29;;;;;;;14.67;9.53;;;6.60;99.90;5.90;100873.00;;;;4929508;28;94766;-66
2021/11/14 03:20:56;;;;;;;13.67;8.43;;;6.40;99.90;5.90;100878.00;;;;4934503;28;101925;-67
2021/11/14 03:23:26;;;;;;;13.77;8.93;;;6.00;99.90;5.90;100873.00;;;;4950390;28;92269;-66
2021/11/14 03:25:52;;;;;;;15.20;9.50;;;6.30;99.90;5.90;100876.00;;;;4935024;28;92785;-66
2021/11/14 03:28:20;;;;;;;17.63;9.93;;;6.10;99.90;6.00;100874.00;;;;4935003;28;92947;-66
2021/11/14 03:30:50;;;;;;;14.33;8.77;;;6.00;99.90;6.00;100874.00;;;;4933816;28;114909;-67
2021/11/14 03:33:16;;;;;;;14.07;9.53;;;6.10;99.90;5.90;100873.00;;;;4934416;28;93000;-70
2021/11/14 03:35:54;;;;;;;18.50;10.20;;;6.40;99.90;5.90;100879.00;;;;4934191;28;93070;-71
2021/11/14 03:38:31;;;;;;;15.43;9.60;;;6.10;99.90;5.90;100879.00;;;;4933941;28;92922;-71
2021/11/14 03:40:59;;;;;;;13.03;10.30;;;6.20;99.90;5.90;100879.00;;;;4931886;28;95244;-72
2021/11/14 03:43:26;;;;;;;22.17;10.47;;;6.00;99.90;5.80;100888.00;;;;4932581;28;101088;-74
2021/11/14 03:45:51;;;;;;;17.53;10.23;;;6.30;99.90;5.80;100890.00;;;;4933420;28;93648;-75
2021/11/14 03:48:18;;;;;;;15.97;10.13;;;6.00;99.90;5.80;100890.00;;;;4932997;28;120979;-73
2021/11/14 03:50:43;;;;;;;19.80;10.70;;;6.00;99.90;5.80;100892.00;;;;4932971;28;92902;-76
2021/11/14 03:53:11;;;;;;;15.87;10.17;;;6.00;99.90;5.80;100896.00;;;;4931567;28;110186;-80
2021/11/14 03:55:38;;;;;;;17.07;11.00;;;6.00;99.90;5.80;100890.00;;;;4947128;28;93956;-78
2021/11/14 03:58:05;;;;;;;18.77;10.27;;;6.00;99.90;5.80;100900.00;;;;4930598;28;95647;-78
2021/11/14 04:00:42;;;;;;;18.20;10.97;;;6.20;99.90;5.70;100883.00;;;;4933274;28;93420;-71
2021/11/14 04:03:10;;;;;;;17.50;9.90;;;5.90;99.90;5.70;100890.00;;;;4933582;28;92985;-72
2021/11/14 04:05:37;;;;;;;16.70;10.97;;;5.90;99.90;5.70;100887.00;;;;4934212;28;92965;-71
2021/11/14 04:08:12;;;;;;;13.43;9.53;;;6.20;99.90;5.70;100884.00;;;;4932603;28;94334;-71
2021/11/14 04:10:39;;;;;;;16.07;9.43;;;5.90;99.90;5.80;100886.00;;;;4931966;28;93121;-70
2021/11/14 04:13:06;;;;;;;21.37;10.30;;;5.90;99.90;5.70;100904.00;;;;4949529;28;92417;-69
2021/11/14 04:15:31;;;;;;;16.40;10.57;;;6.20;99.90;5.70;100919.00;;;;4947501;28;99677;-68
2021/11/14 04:17:58;;;;;;;18.17;10.33;;;6.20;99.90;5.60;100912.00;;;;4938340;28;92961;-68
2021/11/14 04:20:28;;;;;;;20.23;11.57;;;5.70;99.90;5.60;100910.00;;;;4932632;28;93994;-68
2021/11/14 04:22:54;;;;;;;20.90;10.93;;;5.70;99.90;5.60;100922.00;;;;4932569;28;104665;-68
2021/11/14 04:25:22;;;;;;;18.07;10.53;;;5.70;99.90;5.50;100914.00;;;;4933553;28;96503;-67
2021/11/14 04:27:48;;;;;;;15.47;9.40;;;5.60;99.90;5.60;100924.00;;;;4932765;28;93345;-67
2021/11/14 04:30:15;;;;;;;17.90;9.57;;;6.30;99.90;5.60;100925.00;;;;4932935;28;123029;-65
2021/11/14 04:32:42;;;;;;;22.90;11.30;;;6.20;99.90;5.60;100939.00;;;;4932360;28;108217;-66
2021/11/14 04:35:09;;;;;;;16.77;10.97;;;6.20;99.90;5.60;100931.00;;;;4930648;28;93356;-65
2021/11/14 04:37:35;;;;;;;22.13;13.33;;;5.70;99.90;5.60;100934.00;;;;4931941;28;93441;-65
2021/11/14 04:40:01;;;;;;;20.27;11.13;;;6.20;99.90;5.60;100938.00;;;;4932738;28;92674;-66
2021/11/14 04:42:27;;;;;;;17.30;10.80;;;5.70;99.90;5.60;100939.00;;;;4933067;28;92895;-66
2021/11/14 04:44:53;;;;;;;22.57;10.93;;;5.80;99.90;5.60;100943.00;;;;4931341;28;108784;-66
2021/11/14 04:47:18;;;;;;;18.73;11.13;;;6.20;99.90;5.60;100945.00;;;;4932368;28;93114;-66
2021/11/14 04:49:44;;;;;;;23.90;12.63;;;5.70;99.90;5.60;100942.00;;;;4931717;28;123377;-66
2021/11/14 04:52:10;;;;;;;18.77;11.37;;;5.70;99.90;5.60;100950.00;;;;4946650;28;113595;-66
2021/11/14 04:54:37;;;;;;;19.37;11.90;;;6.50;99.90;5.60;100943.00;;;;4931538;28;108898;-66
2021/11/14 04:57:03;;;;;;;20.97;11.10;;;5.80;99.90;5.70;100945.00;;;;4933298;28;93955;-67
2021/11/14 04:59:28;;;;;;;17.00;10.70;;;5.80;99.90;5.70;100946.00;;;;4932308;28;93205;-67
2021/11/14 05:01:54;;;;;;;21.40;11.40;;;5.90;99.90;5.80;100958.00;;;;4931870;28;112569;-67
2021/11/14 05:04:20;;;;;;;18.47;11.27;;;5.90;99.90;5.80;100955.00;;;;4946491;28;108631;-67
2021/11/14 05:06:46;;;;;;;17.13;10.50;;;5.90;99.90;5.80;100952.00;;;;4931241;28;121996;-67
2021/11/14 05:09:11;;;;;;;18.80;10.47;;;5.90;99.90;5.90;100958.00;;;;4931580;28;102124;-68
2021/11/14 05:11:37;;;;;;;20.63;10.53;;;6.10;99.90;5.90;100956.00;;;;4932008;28;113356;-67
2021/11/14 05:14:04;;;;;;;21.50;11.67;;;6.20;99.90;5.90;100961.00;;;;4932949;28;92885;-67
2021/11/14 05:16:29;;;;;;;19.23;10.77;;;6.50;99.90;6.00;100953.00;;;;4933000;28;93666;-68
2021/11/14 05:18:55;;;;;;;18.30;10.27;;;6.40;99.90;6.00;100962.00;;;;4945533;28;122377;-68
2021/11/14 05:21:22;;;;;;;17.47;10.20;;;6.10;99.90;6.00;100961.00;;;;4932818;28;92720;-67
2021/11/14 05:23:47;;;;;;;18.13;9.10;;;6.50;99.90;6.00;100958.00;;;;4932595;28;93310;-67
2021/11/14 05:26:14;;;;;;;17.20;10.47;;;6.30;99.90;6.00;100963.00;;;;4932769;28;93345;-68
2021/11/14 05:28:40;;;;;;;14.47;10.13;;;6.20;99.90;6.00;100964.00;;;;4932085;28;92997;-67
2021/11/14 05:31:06;;;;;;;16.53;10.23;;;6.60;99.90;6.00;100968.00;;;;4932506;28;93002;-67
2021/11/14 05:33:32;;;;;;;19.97;10.10;;;6.30;99.90;6.00;100980.00;;;;4929648;28;93948;-67
2021/11/14 05:35:58;;;;;;;19.13;11.10;;;6.10;99.90;6.00;100969.00;;;;4930439;28;93757;-67
2021/11/14 05:38:24;;;;;;;19.47;10.97;;;6.10;99.90;6.00;100979.00;;;;4931060;28;122327;-67
2021/11/14 05:40:50;;;;;;;11.07;8.77;;;6.80;99.90;6.00;100983.00;;;;4931939;28;102113;-66
2021/11/14 05:43:16;;;;;;;18.03;10.03;;;6.60;99.90;5.90;100990.00;;;;4932491;28;97050;-66
2021/11/14 05:45:43;;;;;;;20.23;10.07;;;6.10;99.90;5.90;100985.00;;;;4931921;28;93970;-66
2021/11/14 05:48:10;;;;;;;14.83;9.80;;;6.50;99.90;5.90;100988.00;;;;4930928;28;123977;-66
2021/11/14 05:50:37;;;;;;;18.10;10.57;;;6.50;99.90;5.80;100989.00;;;;4936178;28;92301;-66
2021/11/14 05:53:05;;;;;;;13.53;9.93;;;6.40;99.90;5.80;100997.00;;;;4935591;28;92876;-66
2021/11/14 05:55:30;;;;;;;14.90;9.63;;;6.60;99.90;5.80;101001.00;;;;4936124;28;94113;-66
2021/11/14 05:58:00;;;;;;;15.43;9.17;;;6.40;99.90;5.80;101000.00;;;;4934553;28;112441;-66
2021/11/14 06:00:48;;;;;;;21.33;11.53;;;6.40;99.90;5.80;101009.00;;;;4935875;28;92747;-66
2021/11/14 06:05:48;;;;;;;20.23;10.20;;;6.40;99.90;5.80;101020.00;;;;4932802;28;93245;-67
2021/11/14 06:08:20;;;;;;;16.17;9.10;;;6.70;99.90;5.80;101025.00;;;;4935100;28;93625;-67
2021/11/14 06:10:50;;;;;;;13.40;7.67;;;6.20;99.90;5.80;101022.00;;;;4935862;28;92806;-67
2021/11/14 06:13:19;;;;;;;11.80;8.00;;;5.90;99.90;5.80;101016.00;;;;4936212;28;92792;-67
2021/11/14 06:15:45;;;;;;;18.53;10.73;;;5.90;99.90;5.80;101025.00;;;;4936137;28;92968;-66
2021/11/14 06:18:11;;;;;;;15.27;9.77;;;6.00;99.90;5.80;101023.00;;;;4948193;28;120737;-67
2021/11/14 06:20:36;;;;;;;15.47;11.17;;;6.00;99.90;5.90;101032.00;;;;4936330;28;92991;-66
2021/11/14 06:23:02;;;;;;;16.13;9.67;;;6.00;99.90;5.90;101037.00;;;;4934646;28;93573;-67
2021/11/14 06:25:28;;;;;;;18.67;11.10;;;6.00;99.90;5.90;101038.00;;;;4916022;28;96340;-67
2021/11/14 06:27:54;;;;;;;13.07;8.63;;;6.10;99.90;5.90;101044.00;;;;4926889;28;108757;-69
2021/11/14 06:30:19;;;;;;;18.97;13.47;;;6.10;99.90;5.90;101054.00;;;;4933111;28;113415;-67
2021/11/14 06:32:45;;;;;;;19.70;11.07;;;6.00;99.90;5.90;101063.00;;;;4934462;28;92601;-67
2021/11/14 06:35:11;;;;;;;21.67;11.83;;;6.10;99.90;5.90;101067.00;;;;4932797;28;122556;-66
2021/11/14 06:37:37;;;;;;;22.03;10.67;;;6.10;99.90;5.90;101064.00;;;;4932174;28;92842;-66
2021/11/14 06:40:05;;;;;;;20.87;11.20;;;6.00;99.90;5.90;101069.00;;;;4931113;28;113365;-66
2021/11/14 06:42:30;;;;;;;17.00;11.57;;;6.00;99.90;5.90;101083.00;;;;4930835;28;98385;-66
2021/11/14 06:44:56;;;;;;;17.87;11.33;;;6.10;99.90;5.90;101078.00;;;;4931120;28;100585;-66
2021/11/14 06:47:22;;;;;;;14.80;10.83;;;6.10;99.90;5.90;101082.00;;;;4930141;28;121990;-67
2021/11/14 06:49:51;;;;;;;19.20;10.97;;;6.10;99.90;5.90;101077.00;;;;4931162;28;92896;-67
2021/11/14 06:52:18;;;;;;;17.67;11.03;;;6.40;99.90;5.90;101081.00;;;;4931733;28;92783;-68
2021/11/14 06:54:44;;;;;;;18.00;11.50;;;6.00;99.90;5.90;101089.00;;;;4931537;28;94246;-67
2021/11/14 06:57:10;;;;;;;18.70;10.43;;;6.30;99.90;5.90;101088.00;;;;4930360;28;123469;-67
2021/11/14 06:59:39;;;;;;;21.53;10.53;;;6.50;99.90;5.90;101088.00;;;;4931838;28;92997;-67
2021/11/14 07:02:07;;;;;;;16.17;10.23;;;6.00;99.90;6.00;101094.00;;;;4930941;28;92762;-67
2021/11/14 07:04:33;;;;;;;19.33;10.93;;;6.40;99.90;6.00;101099.00;;;;4931151;28;94912;-67
2021/11/14 07:06:59;;;;;;;18.80;11.47;;;6.10;99.90;6.00;101108.00;;;;4931166;28;122153;-67
2021/11/14 07:09:25;;;;;;;18.90;10.67;;;6.70;99.90;6.00;101096.00;;;;4931090;28;113554;-67
2021/11/14 07:11:53;;;;;;;17.87;10.73;;;6.10;99.90;6.10;101107.00;;;;4930275;28;96062;-67
2021/11/14 07:14:21;;;;;;;15.27;10.97;;;6.40;99.90;6.10;101122.00;;;;4931334;28;93080;-66
2021/11/14 07:16:47;;;;;;;22.37;12.03;;;6.20;99.90;6.10;101128.00;;;;4930937;28;93090;-67
2021/11/14 07:19:12;;;;;;;17.13;11.57;;;6.30;99.90;6.20;101135.00;;;;4930597;28;106224;-67
2021/11/14 07:21:38;;;;;;;19.27;11.30;;;6.60;99.90;6.20;101130.00;;;;4925849;28;105154;-67
2021/11/14 07:24:04;;;;;;;18.37;10.57;;;6.40;99.90;6.20;101141.00;;;;4930761;28;121082;-66
2021/11/14 07:26:30;;;;;;;17.67;10.70;;;6.30;99.90;6.20;101141.00;;;;4930292;28;99178;-67
2021/11/14 07:28:56;;;;;;;15.67;10.63;;;7.00;99.90;6.30;101139.00;;;;4929496;28;108217;-67
2021/11/14 07:31:22;;;;;;;16.90;10.63;;;6.40;99.90;6.30;101143.00;;;;4930191;28;108176;-68
2021/11/14 07:33:48;;;;;;;24.70;12.40;;;6.40;99.90;6.30;101153.00;;;;4929271;28;122824;-67
2021/11/14 07:36:13;;;;;;;20.67;11.57;;;6.60;99.90;6.30;101152.00;;;;4927968;28;94944;-67
2021/11/14 07:38:39;;;;;;;21.47;12.53;;;6.40;99.90;6.40;101157.00;;;;4929707;28;112614;-67
2021/11/14 07:41:05;;;;;;;17.37;11.63;;;7.00;99.90;6.40;101147.00;;;;4946401;28;92854;-67
2021/11/14 07:43:30;;;;;;;27.93;13.13;;;6.80;99.90;6.50;101143.00;;;;4929142;28;123211;-67
2021/11/14 07:45:56;;;;;;;23.97;12.40;;;6.50;99.90;6.50;101156.00;;;;4930623;28;103102;-67
2021/11/14 07:48:22;;;;;;;18.27;13.23;;;7.00;99.90;6.50;101166.00;;;;4930080;28;112970;-68
2021/11/14 07:50:48;;;;;;;22.53;12.63;;;7.20;99.90;6.50;101159.00;;;;4930157;28;108303;-67
2021/11/14 07:53:13;;;;;;;24.60;13.83;;;6.70;99.90;6.60;101160.00;;;;4930887;28;93455;-68
2021/11/14 07:55:40;;;;;;;18.13;10.57;;;6.70;99.90;6.60;101170.00;;;;4928969;28;120999;-69
2021/11/14 07:58:06;;;;;;;21.30;12.30;;;6.70;99.90;6.70;101177.00;;;;4930560;28;93034;-67
2021/11/14 08:00:34;;;;;;;18.47;11.73;;;6.80;99.90;6.70;101169.00;;;;4930862;28;93847;-67
2021/11/14 08:03:00;;;;;;;15.33;10.93;;;6.80;99.90;6.80;101184.00;;;;4930212;28;113059;-67
2021/11/14 08:05:28;;;;;;;18.97;11.93;;;6.80;99.90;6.80;101188.00;;;;4931028;28;94687;-67
2021/11/14 08:07:54;;;;;;;19.77;11.63;;;6.90;99.90;6.80;101182.00;;;;4930346;28;92703;-67
2021/11/14 08:10:21;;;;;;;22.07;13.23;;;7.10;99.90;6.90;101187.00;;;;4930442;28;94027;-68
2021/11/14 08:12:48;;;;;;;20.67;13.60;;;7.00;99.90;6.90;101190.00;;;;4930207;28;93631;-68
2021/11/14 08:15:14;;;;;;;23.33;13.67;;;7.00;99.90;7.00;101193.00;;;;4930238;28;93550;-68
2021/11/14 08:17:40;;;;;;;20.83;13.27;;;7.10;99.90;7.00;101196.00;;;;4930745;28;92092;-67
2021/11/14 08:20:07;;;;;;;19.43;12.27;;;7.50;99.90;7.10;101203.00;;;;4930803;28;92777;-68
2021/11/14 08:22:33;;;;;;;19.27;12.37;;;7.10;99.90;7.10;101210.00;;;;4945091;28;93302;-67
2021/11/14 08:25:01;;;;;;;24.33;12.33;;;7.20;99.90;7.10;101217.00;;;;4929755;28;94135;-68
2021/11/14 08:27:30;;;;;;;14.73;11.07;;;7.20;99.90;7.20;101219.00;;;;4927940;28;93057;-67
2021/11/14 08:29:58;;;;;;;17.33;11.63;;;7.20;99.90;7.20;101219.00;;;;4929952;28;92894;-67
2021/11/14 08:32:25;;;;;;;16.70;11.97;;;7.20;99.90;7.30;101223.00;;;;4930086;28;93862;-67
2021/11/14 08:34:50;;;;;;;19.33;12.47;;;7.40;99.90;7.30;101222.00;;;;4929929;28;93672;-68
2021/11/14 08:37:16;;;;;;;20.43;13.13;;;7.40;99.90;7.40;101229.00;;;;4929087;28;112239;-67
2021/11/14 08:39:42;;;;;;;19.23;13.70;;;7.40;99.90;7.40;101238.00;;;;4927970;28;109764;-68
2021/11/14 08:42:10;;;;;;;24.63;14.50;;;7.50;99.90;7.50;101237.00;;;;4930271;28;93545;-66
2021/11/14 08:44:36;;;;;;;21.13;13.37;;;7.50;99.90;7.50;101240.00;;;;4930231;28;93274;-67
2021/11/14 08:47:03;;;;;;;20.67;13.33;;;7.60;99.90;7.50;101241.00;;;;4929691;28;112705;-67
2021/11/14 08:49:28;;;;;;;20.10;12.90;;;7.60;99.90;7.50;101241.00;;;;4944209;28;94091;-67
2021/11/14 08:51:54;;;;;;;25.43;13.70;;;7.60;99.90;7.50;101242.00;;;;4929239;28;123662;-67
2021/11/14 08:54:20;;;;;;;24.23;14.07;;;7.60;99.90;7.50;101240.00;;;;4929367;28;121531;-68
2021/11/14 08:56:46;;;;;;;22.57;14.07;;;7.90;99.90;7.60;101249.00;;;;4929628;28;92939;-68
2021/11/14 08:59:12;;;;;;;23.70;14.40;;;7.50;99.90;7.70;101234.00;;;;4928429;28;109355;-68
2021/11/14 09:01:39;;;;;;;23.33;13.80;;;7.80;99.90;7.70;101240.00;;;;4928865;28;93889;-68
2021/11/14 09:04:07;;;;;;;19.70;13.83;;;7.80;99.90;7.80;101248.00;;;;4928774;28;122508;-68
2021/11/14 09:06:37;;;;;;;18.63;12.80;;;7.90;99.90;7.90;101251.00;;;;4944834;28;92380;-68
2021/11/14 09:09:10;;;;;;;29.63;13.30;;;7.90;99.90;8.00;101250.00;;;;4930432;28;92837;-68
2021/11/14 09:11:38;;;;;;;23.50;13.17;;;8.00;99.90;8.00;101257.00;;;;4929017;28;93925;-67
2021/11/14 09:14:03;;;;;;;23.73;13.60;;;8.10;99.90;8.10;101257.00;;;;4928399;28;116035;-67
2021/11/14 09:16:29;;;;;;;19.50;13.53;;;8.20;99.90;8.20;101254.00;;;;4929294;28;92779;-66
2021/11/14 09:18:56;;;;;;;21.77;13.30;;;8.20;99.90;8.30;101255.00;;;;4927813;28;108884;-66
2021/11/14 09:21:22;;;;;;;28.83;14.67;;;8.30;99.90;8.40;101262.00;;;;4929290;28;92802;-66
2021/11/14 09:23:49;;;;;;;31.63;14.57;;;8.40;99.90;8.50;101262.00;;;;4930096;28;93163;-66
2021/11/14 09:26:16;;;;;;;24.00;13.67;;;8.50;99.90;8.60;101256.00;;;;4933021;28;93158;-67
2021/11/14 09:28:42;;;;;;;21.57;12.80;;;8.60;99.90;8.80;101267.00;;;;4932392;28;92899;-67
2021/11/14 09:31:10;;;;;;;26.17;14.40;;;8.80;99.90;8.90;101258.00;;;;4933276;28;93218;-66
2021/11/14 09:33:36;;;;;;;23.07;12.03;;;8.90;99.90;9.00;101255.00;;;;4931938;28;93011;-66
2021/11/14 09:36:03;;;;;;;22.63;12.17;;;9.00;99.90;9.20;101264.00;;;;4933327;28;92891;-67
2021/11/14 09:38:28;;;;;;;17.20;11.90;;;9.10;99.90;9.20;101272.00;;;;4931158;28;99580;-67
2021/11/14 09:40:58;;;;;;;21.13;12.87;;;9.20;99.90;9.30;101271.00;;;;4932009;28;122265;-68
2021/11/14 09:43:24;;;;;;;23.63;12.93;;;9.20;99.90;9.30;101279.00;;;;4932838;28;94021;-68
2021/11/14 09:45:54;;;;;;;20.80;12.60;;;9.30;99.90;9.30;101277.00;;;;4933066;28;92827;-67
2021/11/14 09:48:22;;;;;;;17.30;10.23;;;9.40;99.90;9.40;101279.00;;;;4933141;28;92760;-67
2021/11/14 09:50:55;;;;;;;20.40;11.93;;;9.40;99.90;9.40;101273.00;;;;4932114;28;93762;-69
2021/11/14 09:53:28;;;;;;;19.27;12.37;;;9.40;99.90;9.50;101285.00;;;;4931423;28;114702;-67
2021/11/14 09:55:57;;;;;;;18.37;11.87;;;9.50;99.90;9.60;101280.00;;;;4932796;28;91922;-68
2021/11/14 09:58:23;;;;;;;18.67;11.67;;;9.50;99.90;9.70;101290.00;;;;4932619;28;93137;-67
2021/11/14 10:00:50;;;;;;;23.37;12.33;;;9.60;99.90;9.70;101293.00;;;;4932054;28;94178;-67
2021/11/14 10:03:16;;;;;;;22.33;13.33;;;9.70;99.90;9.80;101297.00;;;;4931151;28;94201;-67
2021/11/14 10:05:42;;;;;;;21.07;12.07;;;9.80;99.90;9.90;101290.00;;;;4931938;28;103521;-67
2021/11/14 10:08:10;;;;;;;21.73;11.80;;;9.90;99.90;9.90;101293.00;;;;4932374;28;92814;-67
2021/11/14 10:10:53;;;;;;;22.20;11.37;;;9.90;99.90;10.00;101305.00;;;;4932045;28;94101;-67
2021/11/14 10:13:35;;;;;;;18.17;12.00;;;10.00;99.90;10.00;101287.00;;;;4929772;28;108180;-67
2021/11/14 10:16:21;;;;;;;19.63;12.63;;;10.00;99.90;10.10;101288.00;;;;4931071;28;92785;-67
2021/11/14 10:18:59;;;;;;;18.93;11.07;;;10.10;99.90;10.10;101294.00;;;;4931376;28;92768;-67
2021/11/14 10:21:30;;;;;;;15.83;10.73;;;10.10;99.90;10.20;101296.00;;;;4947063;28;92132;-67
2021/11/14 10:23:59;;;;;;;22.50;12.07;;;10.20;99.90;10.20;101300.00;;;;4931599;28;94406;-68
2021/11/14 10:26:28;;;;;;;19.10;11.07;;;10.20;99.90;10.20;101303.00;;;;4929987;28;92933;-67
2021/11/14 10:29:04;;;;;;;16.43;10.53;;;10.20;99.90;10.20;101297.00;;;;4929698;28;93786;-67
2021/11/14 10:31:31;;;;;;;20.83;11.67;;;10.20;99.90;10.20;101298.00;;;;4925597;28;108928;-66
2021/11/14 10:33:57;;;;;;;22.37;12.43;;;10.20;99.90;10.20;101302.00;;;;4931833;28;93627;-66
2021/11/14 10:36:25;;;;;;;23.83;13.23;;;10.30;99.90;10.30;101294.00;;;;4930619;28;96967;-66
2021/11/14 10:39:06;;;;;;;18.23;11.27;;;10.30;99.90;10.30;101306.00;;;;4931117;28;93193;-67
2021/11/14 10:41:33;;;;;;;17.23;11.77;;;10.30;99.90;10.30;101294.00;;;;4932096;28;95641;-66
2021/11/14 10:44:14;;;;;;;21.90;12.10;;;10.30;99.90;10.30;101293.00;;;;4931410;28;93107;-66
2021/11/14 10:46:40;;;;;;;17.67;11.27;;;10.30;99.90;10.30;101304.00;;;;4931808;28;92150;-66
2021/11/14 10:49:09;;;;;;;19.53;11.30;;;10.30;99.90;10.30;101305.00;;;;4932121;28;92807;-65